This is the latest recevied weather packets stored in our database for station/object KE7JGM-4. If no packets are shown the sender has not sent any weather packets the latest 10 day(s).
| Time | Temp. | Humidity | Pressure | Rain* | Wind** | Luminosity | Snow |
|---|---|---|---|---|---|---|---|
| 1777377618 | 1.11° C | 65% | 1019.8 hPa | 0 mm | - | - | - |
| 1777366837 | 3.33° C | 58% | 1020.6 hPa | 0 mm | - | - | - |
| 1777363217 | 4.44° C | 53% | 1020.9 hPa | 0 mm | - | - | - |
| 1777359637 | 5.56° C | 49% | 1021.1 hPa | 0 mm | - | - | - |
| 1777356017 | 7.22° C | 44% | 1021.2 hPa | 0 mm | - | - | - |
| 1777341617 | 11.67° C | 32% | 1017.4 hPa | 0 mm | - | - | - |
| 1777324516 | 14.44° C | 22% | 1018.7 hPa | 0 mm | - | - | - |
| 1777317316 | 13.89° C | 23% | 1019.2 hPa | 0 mm | - | - | - |
| 1777315516 | 13.33° C | 28% | 1019.5 hPa | 0 mm | - | - | - |
| 1777311016 | 12.22° C | 28% | 1020.1 hPa | 0 mm | - | - | - |
| 1777303816 | 9.44° C | 33% | 1018.9 hPa | 0 mm | - | - | - |
| 1777293916 | 1.67° C | 77% | 1014.9 hPa | 0 mm | - | - | - |
| 1777287617 | 2.78° C | 73% | 1015.3 hPa | 0 mm | - | - | - |
| 1777285817 | 2.78° C | 74% | 1015.7 hPa | 0 mm | - | - | - |
| 1777283117 | 2.78° C | 74% | 1015.3 hPa | 0 mm | - | - | - |
| 1777280417 | 3.33° C | 72% | 1015.8 hPa | 0 mm | - | - | - |
| 1777279517 | 3.33° C | 72% | 1015.4 hPa | 0 mm | - | - | - |
| 1777276837 | 3.89° C | 71% | 1016.2 hPa | 0 mm | - | - | - |
| 1777273237 | 5° C | 67% | 1016.2 hPa | 0 mm | - | - | - |
| 1777272317 | 5° C | 66% | 1016.2 hPa | 0 mm | - | - | - |
| 1777263337 | 8.33° C | 56% | 1016.2 hPa | 0 mm | - | - | - |
| 1777259737 | 8.33° C | 56% | 1015.4 hPa | 0 mm | - | - | - |
| 1777248017 | 9.44° C | 54% | 1013.5 hPa | 0 mm | - | - | - |
| 1777242637 | 10° C | 52% | 1013.5 hPa | 0 mm | - | - | - |
| 1777239917 | 10° C | 50% | 1013.5 hPa | 0 mm | - | - | - |
* Rain latest hour (hover to see other rain measurements)
** Current wind speed in m/s (hover to see current wind gust speed)